createdAt,value
2019-04-29T00:02:35.382Z,10.28
2019-04-29T00:05:09.228Z,10.82
2019-04-29T00:07:42.972Z,11.15
2019-04-29T00:10:20.995Z,10.50
2019-04-29T00:12:54.943Z,10.93
2019-04-29T00:15:45.833Z,9.85
2019-04-29T00:18:34.004Z,10.72
2019-04-29T00:21:07.333Z,9.73
2019-04-29T00:23:41.676Z,10.23
2019-04-29T00:26:15.451Z,9.38
2019-04-29T00:28:50.480Z,9.48
2019-04-29T00:31:25.528Z,9.73
2019-04-29T00:33:59.634Z,9.85
2019-04-29T00:36:37.895Z,9.80
2019-04-29T00:39:28.495Z,10.10
2019-04-29T00:42:23.416Z,10.08
2019-04-29T00:44:57.284Z,9.80
2019-04-29T00:47:30.251Z,9.83
2019-04-29T00:50:04.498Z,10.05
2019-04-29T00:52:38.507Z,10.03
2019-04-29T00:55:15.350Z,10.18
2019-04-29T00:57:49.159Z,10.90
2019-04-29T01:00:32.919Z,9.78
2019-04-29T01:03:06.047Z,10.78
2019-04-29T01:05:39.853Z,9.23
2019-04-29T01:08:13.697Z,9.65
2019-04-29T01:10:47.018Z,10.08
2019-04-29T01:13:20.278Z,9.38
2019-04-29T01:15:54.637Z,9.93
2019-04-29T01:18:28.449Z,10.05
2019-04-29T01:21:01.807Z,10.35
2019-04-29T01:23:35.438Z,10.63
2019-04-29T01:26:30.445Z,9.73
2019-04-29T01:29:06.164Z,9.98
2019-04-29T01:31:39.320Z,10.00
2019-04-29T01:34:21.061Z,10.23
2019-04-29T01:36:54.378Z,10.78
2019-04-29T01:39:39.747Z,10.95
2019-04-29T01:42:26.439Z,10.60
2019-04-29T01:45:00.233Z,9.60
2019-04-29T01:47:33.580Z,10.23
2019-04-29T01:50:06.675Z,9.45
2019-04-29T01:52:40.426Z,10.70
2019-04-29T01:55:14.234Z,10.53
2019-04-29T01:57:47.559Z,10.20
2019-04-29T02:00:22.425Z,9.63
2019-04-29T02:02:55.328Z,10.23
2019-04-29T02:05:29.690Z,9.40
2019-04-29T02:08:03.778Z,9.53
2019-04-29T02:10:35.811Z,9.60
2019-04-29T02:13:10.201Z,8.53
2019-04-29T02:15:44.410Z,9.08
2019-04-29T02:18:18.176Z,9.65
2019-04-29T02:20:51.954Z,8.93
2019-04-29T02:23:39.077Z,8.38
2019-04-29T02:26:12.717Z,8.45
2019-04-29T02:28:46.547Z,9.13
2019-04-29T02:31:36.409Z,8.65
2019-04-29T02:34:10.211Z,8.38
2019-04-29T02:36:44.249Z,8.08
2019-04-29T02:39:45.176Z,7.80
2019-04-29T02:42:35.589Z,7.90
2019-04-29T02:45:13.208Z,8.55
2019-04-29T02:47:46.482Z,7.10
2019-04-29T02:50:20.895Z,6.67
2019-04-29T02:52:55.115Z,7.00
2019-04-29T02:55:41.593Z,7.30
2019-04-29T02:58:42.535Z,6.78
2019-04-29T03:01:33.258Z,7.00
2019-04-29T03:04:14.459Z,6.37
2019-04-29T03:06:48.252Z,6.67
2019-04-29T03:09:22.114Z,6.22
2019-04-29T03:11:55.833Z,5.62
2019-04-29T03:14:30.240Z,6.58
2019-04-29T03:17:03.573Z,5.97
2019-04-29T03:19:39.459Z,6.10
2019-04-29T03:22:13.732Z,6.30
2019-04-29T03:24:47.528Z,6.00
2019-04-29T03:27:21.154Z,5.60
2019-04-29T03:29:54.962Z,5.97
2019-04-29T03:32:28.240Z,6.17
2019-04-29T03:35:02.046Z,5.40
2019-04-29T03:37:35.348Z,6.05
2019-04-29T03:40:09.889Z,6.00
2019-04-29T03:42:42.772Z,5.37
2019-04-29T03:45:16.683Z,5.35
2019-04-29T03:47:49.771Z,5.42
2019-04-29T03:50:23.951Z,5.47
2019-04-29T03:52:57.211Z,5.50
2019-04-29T03:55:40.047Z,4.97
2019-04-29T03:58:06.837Z,5.40
2019-04-29T04:00:43.599Z,5.53
2019-04-29T04:03:41.843Z,5.22
2019-04-29T04:06:31.342Z,4.92
2019-04-29T04:09:38.911Z,4.55
2019-04-29T04:12:12.695Z,5.10
2019-04-29T04:14:46.398Z,4.60
2019-04-29T04:17:34.079Z,5.17
2019-04-29T04:20:07.839Z,4.20
2019-04-29T04:22:50.084Z,4.58
2019-04-29T04:25:24.313Z,4.83
2019-04-29T04:27:58.142Z,4.97
2019-04-29T04:30:31.453Z,4.72
2019-04-29T04:33:04.330Z,4.25
2019-04-29T04:35:37.413Z,3.85
2019-04-29T04:38:10.290Z,3.92
2019-04-29T04:40:52.091Z,4.53
2019-04-29T04:43:24.860Z,3.87
2019-04-29T04:45:58.761Z,4.10
2019-04-29T04:48:32.485Z,4.00
2019-04-29T04:51:05.625Z,4.40
2019-04-29T04:53:39.897Z,4.83
2019-04-29T04:56:12.775Z,4.37
2019-04-29T04:58:46.649Z,4.30
2019-04-29T05:01:19.949Z,4.30
2019-04-29T05:03:54.292Z,4.60
2019-04-29T05:06:27.549Z,4.65
2019-04-29T05:09:00.353Z,4.12
2019-04-29T05:11:34.048Z,4.15
2019-04-29T05:14:07.785Z,4.25
2019-04-29T05:16:41.586Z,4.00
2019-04-29T05:19:15.359Z,4.12
2019-04-29T05:21:49.199Z,3.80
2019-04-29T05:24:23.285Z,3.92
2019-04-29T05:26:56.985Z,4.12
2019-04-29T05:29:29.941Z,4.00
2019-04-29T05:32:03.224Z,3.92
2019-04-29T05:34:37.181Z,4.42
2019-04-29T05:37:17.341Z,4.70
2019-04-29T05:39:50.110Z,4.28
2019-04-29T05:42:22.702Z,4.22
2019-04-29T05:45:16.543Z,4.78
2019-04-29T05:47:57.129Z,5.95
2019-04-29T05:50:52.168Z,5.50
2019-04-29T05:53:47.862Z,4.97
2019-04-29T05:56:22.388Z,5.65
2019-04-29T05:58:56.265Z,6.00
2019-04-29T06:01:31.739Z,6.05
2019-04-29T06:04:05.546Z,7.25
2019-04-29T06:06:39.745Z,6.50
2019-04-29T06:09:16.633Z,8.03
2019-04-29T06:11:49.322Z,6.60
2019-04-29T06:14:23.151Z,6.75
2019-04-29T06:16:57.651Z,6.90
2019-04-29T06:19:31.171Z,7.22
2019-04-29T06:22:04.602Z,7.92
2019-04-29T06:24:40.955Z,8.10
2019-04-29T06:27:11.195Z,7.80
2019-04-29T06:29:44.232Z,8.25
2019-04-29T06:32:20.183Z,8.75
2019-04-29T06:34:51.637Z,8.95
2019-04-29T06:37:24.518Z,8.03
2019-04-29T06:39:57.377Z,8.08
2019-04-29T06:42:33.298Z,8.88
2019-04-29T06:45:05.765Z,8.75
2019-04-29T06:47:39.501Z,8.33
2019-04-29T06:50:14.235Z,8.93
2019-04-29T06:52:47.549Z,8.78
2019-04-29T06:55:21.370Z,8.98
2019-04-29T06:57:55.826Z,8.48
2019-04-29T07:00:30.116Z,9.48
2019-04-29T07:03:04.361Z,9.68
2019-04-29T07:05:38.545Z,9.75
2019-04-29T07:08:11.467Z,10.72
2019-04-29T07:10:47.684Z,9.50
2019-04-29T07:13:22.849Z,9.38
2019-04-29T07:15:56.529Z,9.83
2019-04-29T07:18:29.870Z,9.75
2019-04-29T07:21:02.637Z,9.10
2019-04-29T07:23:35.086Z,8.20
2019-04-29T07:26:09.040Z,9.23
2019-04-29T07:28:41.878Z,8.08
2019-04-29T07:31:14.878Z,8.38
2019-04-29T07:33:48.465Z,7.62
2019-04-29T07:36:22.864Z,7.97
2019-04-29T07:38:57.308Z,8.38
2019-04-29T07:41:30.663Z,8.80
2019-04-29T07:44:04.361Z,8.45
2019-04-29T07:46:59.165Z,8.95
2019-04-29T07:49:28.943Z,8.93
2019-04-29T07:52:02.656Z,8.83
2019-04-29T07:54:36.559Z,8.75
2019-04-29T07:57:12.474Z,9.93
2019-04-29T07:59:46.455Z,8.43
2019-04-29T08:02:18.915Z,8.90
2019-04-29T08:04:51.985Z,8.60
2019-04-29T08:07:24.580Z,8.48
2019-04-29T08:09:57.145Z,9.00
2019-04-29T08:12:32.070Z,9.33
2019-04-29T08:15:07.847Z,8.88
2019-04-29T08:17:40.745Z,8.70
2019-04-29T08:20:14.215Z,9.15
2019-04-29T08:22:47.149Z,9.45
2019-04-29T08:25:21.783Z,8.90
2019-04-29T08:27:54.686Z,9.08
2019-04-29T08:30:26.744Z,9.58
2019-04-29T08:33:00.311Z,10.20
2019-04-29T08:35:36.910Z,9.13
2019-04-29T08:38:07.250Z,9.85
2019-04-29T08:40:40.198Z,9.30
2019-04-29T08:43:43.751Z,10.05
2019-04-29T08:46:21.183Z,10.03
2019-04-29T08:48:53.218Z,9.50
2019-04-29T08:51:25.651Z,10.30
2019-04-29T08:53:57.643Z,9.30
2019-04-29T08:56:30.890Z,10.28
2019-04-29T08:59:03.380Z,10.40
2019-04-29T09:01:36.730Z,9.83
2019-04-29T09:04:09.634Z,8.93
2019-04-29T09:06:43.061Z,9.18
2019-04-29T09:09:28.794Z,9.03
2019-04-29T09:11:54.499Z,9.95
2019-04-29T09:14:28.110Z,9.88
2019-04-29T09:17:06.111Z,9.95
2019-04-29T09:19:39.474Z,9.85
2019-04-29T09:22:14.849Z,10.18
2019-04-29T09:25:05.296Z,9.40
2019-04-29T09:27:40.696Z,8.95
2019-04-29T09:30:15.969Z,9.40
2019-04-29T09:32:50.941Z,8.43
2019-04-29T09:35:24.848Z,8.60
2019-04-29T09:37:59.706Z,8.35
2019-04-29T09:40:34.837Z,8.88
2019-04-29T09:43:26.013Z,8.35
2019-04-29T09:46:06.257Z,8.98
2019-04-29T09:48:39.997Z,10.35
2019-04-29T09:51:17.608Z,12.33
2019-04-29T09:53:48.327Z,8.85
2019-04-29T09:56:21.650Z,9.58
2019-04-29T09:59:12.822Z,9.58
2019-04-29T10:01:56.293Z,12.33
2019-04-29T10:04:39.320Z,12.23
2019-04-29T10:07:13.114Z,12.55
2019-04-29T10:09:57.032Z,14.03
2019-04-29T10:12:21.540Z,14.43
2019-04-29T10:14:55.664Z,14.40
2019-04-29T10:17:45.824Z,14.65
2019-04-29T10:20:30.843Z,14.80
2019-04-29T10:23:05.148Z,13.65
2019-04-29T10:25:38.374Z,12.80
2019-04-29T10:28:12.228Z,13.35
2019-04-29T10:30:47.595Z,13.35
2019-04-29T10:33:23.169Z,15.45
2019-04-29T10:35:56.547Z,15.48
2019-04-29T10:38:30.343Z,15.48
2019-04-29T10:41:12.858Z,15.85
2019-04-29T10:44:03.122Z,15.32
2019-04-29T10:47:02.656Z,15.43
2019-04-29T10:49:41.496Z,17.32
2019-04-29T10:52:15.804Z,16.48
2019-04-29T10:54:51.181Z,16.77
2019-04-29T10:57:29.247Z,17.05
2019-04-29T11:00:12.778Z,16.60
2019-04-29T11:02:49.481Z,16.32
2019-04-29T11:05:30.129Z,17.25
2019-04-29T11:08:22.495Z,18.52
2019-04-29T11:11:02.111Z,18.12
2019-04-29T11:13:30.882Z,19.25
2019-04-29T11:16:05.366Z,22.10
2019-04-29T11:18:38.584Z,22.82
2019-04-29T11:21:12.013Z,23.80
2019-04-29T11:23:57.765Z,23.40
2019-04-29T11:26:39.463Z,24.52
2019-04-29T11:29:13.684Z,25.08
2019-04-29T11:31:54.085Z,23.52
2019-04-29T11:34:42.492Z,23.90
2019-04-29T11:37:19.480Z,25.40
2019-04-29T11:39:56.838Z,24.12
2019-04-29T11:42:31.868Z,24.80
2019-04-29T11:45:04.023Z,25.75
2019-04-29T11:47:37.282Z,24.98
2019-04-29T11:50:28.982Z,25.92
2019-04-29T11:53:02.335Z,25.62
2019-04-29T11:55:35.502Z,26.25
2019-04-29T11:58:14.712Z,27.82
2019-04-29T12:01:10.208Z,27.40
2019-04-29T12:03:44.668Z,28.57
2019-04-29T12:06:20.910Z,27.73
2019-04-29T12:08:53.196Z,30.40
2019-04-29T12:11:28.745Z,27.85
2019-04-29T12:14:16.579Z,28.38
2019-04-29T12:16:54.701Z,26.30
2019-04-29T12:19:29.726Z,27.35
2019-04-29T12:22:04.919Z,27.80
2019-04-29T12:24:38.770Z,27.62
2019-04-29T12:27:14.729Z,30.88
2019-04-29T12:29:48.787Z,28.95
2019-04-29T12:32:32.517Z,29.30
2019-04-29T12:35:32.924Z,28.17
2019-04-29T12:38:22.722Z,29.07
2019-04-29T12:41:20.533Z,29.42
2019-04-29T12:44:06.774Z,29.20
2019-04-29T12:47:00.297Z,27.85
2019-04-29T12:49:33.302Z,29.57
2019-04-29T12:52:06.695Z,28.00
2019-04-29T12:54:41.983Z,29.05
2019-04-29T12:57:18.932Z,27.37
2019-04-29T12:59:54.584Z,28.25
2019-04-29T13:02:44.957Z,27.00
2019-04-29T13:05:37.332Z,24.07
2019-04-29T13:08:33.117Z,26.68
2019-04-29T13:11:06.886Z,24.27
2019-04-29T13:13:40.148Z,24.65
2019-04-29T13:16:37.283Z,23.85
2019-04-29T13:19:29.856Z,23.75
2019-04-29T13:22:02.016Z,24.15
2019-04-29T13:24:38.479Z,25.12
2019-04-29T13:27:16.278Z,26.87
2019-04-29T13:29:45.431Z,26.10
2019-04-29T13:32:17.955Z,25.52
2019-04-29T13:34:52.960Z,27.02
2019-04-29T13:37:25.390Z,30.68
2019-04-29T13:39:58.797Z,29.42
2019-04-29T13:42:31.860Z,29.25
2019-04-29T13:45:12.220Z,30.50
2019-04-29T13:48:07.238Z,29.67
2019-04-29T13:50:45.663Z,29.60
2019-04-29T13:53:19.239Z,28.45
2019-04-29T13:56:10.558Z,26.62
2019-04-29T13:58:29.212Z,28.70
2019-04-29T14:01:51.515Z,27.25
2019-04-29T14:04:24.268Z,29.07
2019-04-29T14:06:56.968Z,29.40
2019-04-29T14:09:28.237Z,29.72
2019-04-29T14:12:19.942Z,29.95
2019-04-29T14:14:36.163Z,30.57
2019-04-29T14:17:25.233Z,32.15
2019-04-29T14:19:46.997Z,32.45
2019-04-29T14:22:22.270Z,34.63
2019-04-29T14:24:56.234Z,33.00
2019-04-29T14:27:30.032Z,34.53
2019-04-29T14:30:07.240Z,33.48
2019-04-29T14:32:42.410Z,34.10
2019-04-29T14:35:36.107Z,33.13
2019-04-29T14:38:08.031Z,34.48
2019-04-29T14:40:42.809Z,34.40
2019-04-29T14:43:30.864Z,34.55
2019-04-29T14:46:17.689Z,32.13
2019-04-29T14:48:59.615Z,31.48
2019-04-29T14:51:36.786Z,33.05
2019-04-29T14:54:10.064Z,32.53
2019-04-29T14:56:44.937Z,33.05
2019-04-29T14:59:17.424Z,33.38
2019-04-29T15:02:16.252Z,34.10
2019-04-29T15:04:47.582Z,32.83
2019-04-29T15:07:20.585Z,34.70
2019-04-29T15:09:57.852Z,33.00
2019-04-29T15:13:01.576Z,33.40
2019-04-29T15:15:46.621Z,36.90
2019-04-29T15:18:50.498Z,34.85
2019-04-29T15:21:34.677Z,34.70
2019-04-29T15:24:08.699Z,34.75
2019-04-29T15:26:43.056Z,35.55
2019-04-29T15:29:17.111Z,34.85
2019-04-29T15:31:50.139Z,34.92
2019-04-29T15:34:23.093Z,36.08
2019-04-29T15:36:55.533Z,35.70
2019-04-29T15:39:29.284Z,36.25
2019-04-29T15:42:06.157Z,36.33
2019-04-29T15:44:36.604Z,36.00
2019-04-29T15:47:09.666Z,35.15
2019-04-29T15:49:43.124Z,35.17
2019-04-29T15:52:16.023Z,33.90
2019-04-29T15:54:51.116Z,34.08
2019-04-29T15:57:22.726Z,32.60
2019-04-29T15:59:59.685Z,33.60
2019-04-29T16:02:29.807Z,34.13
2019-04-29T16:05:10.275Z,34.90
2019-04-29T16:07:57.276Z,34.73
2019-04-29T16:10:51.763Z,34.38
2019-04-29T16:13:22.567Z,36.75
2019-04-29T16:15:57.158Z,34.55
2019-04-29T16:18:30.242Z,34.90
2019-04-29T16:21:02.748Z,32.60
2019-04-29T16:23:38.631Z,31.85
2019-04-29T16:26:09.739Z,32.83
2019-04-29T16:28:42.755Z,35.15
2019-04-29T16:31:15.410Z,32.75
2019-04-29T16:33:54.656Z,31.37
2019-04-29T16:36:21.651Z,34.23
2019-04-29T16:38:54.466Z,35.63
2019-04-29T16:41:44.794Z,33.92
2019-04-29T16:44:34.907Z,31.55
2019-04-29T16:46:52.818Z,32.42
2019-04-29T16:49:25.340Z,34.03
2019-04-29T16:51:57.738Z,32.13
2019-04-29T16:54:31.435Z,32.03
2019-04-29T16:57:04.741Z,32.48
2019-04-29T16:59:38.050Z,30.57
2019-04-29T17:02:11.324Z,30.12
2019-04-29T17:04:45.058Z,29.10
2019-04-29T17:07:18.742Z,31.37
2019-04-29T17:10:11.072Z,32.25
2019-04-29T17:12:53.568Z,31.42
2019-04-29T17:15:27.901Z,32.80
2019-04-29T17:18:01.667Z,31.68
2019-04-29T17:20:36.476Z,28.62
2019-04-29T17:23:10.891Z,30.48
2019-04-29T17:25:42.991Z,30.82
2019-04-29T17:28:33.277Z,29.15
2019-04-29T17:31:20.291Z,32.23
2019-04-29T17:34:02.022Z,30.65
2019-04-29T17:36:34.451Z,28.90
2019-04-29T17:39:09.082Z,33.25
2019-04-29T17:41:42.525Z,35.33
2019-04-29T17:44:42.932Z,32.42
2019-04-29T17:47:32.185Z,31.60
2019-04-29T17:50:30.102Z,33.73
2019-04-29T17:52:57.184Z,32.15
2019-04-29T17:55:45.321Z,34.98
2019-04-29T17:58:33.424Z,33.75
2019-04-29T18:01:28.843Z,34.53
2019-04-29T18:04:18.620Z,37.20
2019-04-29T18:06:59.016Z,36.17
2019-04-29T18:09:51.909Z,37.03
2019-04-29T18:12:25.091Z,38.75
2019-04-29T18:14:58.452Z,40.83
2019-04-29T18:17:36.123Z,40.63
2019-04-29T18:20:37.911Z,41.48
2019-04-29T18:23:44.694Z,42.27
2019-04-29T18:26:33.768Z,44.10
2019-04-29T18:29:09.000Z,44.58
2019-04-29T18:31:41.385Z,47.48
2019-04-29T18:34:15.311Z,43.52
2019-04-29T18:36:47.747Z,48.25
2019-04-29T18:39:26.852Z,31.30
2019-04-29T18:41:58.847Z,20.80
2019-04-29T18:44:31.707Z,16.52
2019-04-29T18:47:05.574Z,12.73
2019-04-29T18:49:38.845Z,12.03
2019-04-29T18:52:23.007Z,11.10
2019-04-29T18:54:45.876Z,11.55
2019-04-29T18:57:27.936Z,14.70
2019-04-29T18:59:54.855Z,18.02
2019-04-29T19:02:27.591Z,17.05
2019-04-29T19:05:06.406Z,14.90
2019-04-29T19:07:39.775Z,13.62
2019-04-29T19:10:14.333Z,12.37
2019-04-29T19:12:57.571Z,13.10
2019-04-29T19:15:22.147Z,14.83
2019-04-29T19:18:01.197Z,15.55
2019-04-29T19:20:30.187Z,16.02
2019-04-29T19:23:07.855Z,17.10
2019-04-29T19:25:41.566Z,15.55
2019-04-29T19:28:16.825Z,13.58
2019-04-29T19:30:48.947Z,13.30
2019-04-29T19:33:23.003Z,14.35
2019-04-29T19:35:55.653Z,15.23
2019-04-29T19:38:28.544Z,14.50
2019-04-29T19:41:01.951Z,13.43
2019-04-29T19:43:35.944Z,13.45
2019-04-29T19:46:21.518Z,14.83
2019-04-29T19:48:45.004Z,15.00
2019-04-29T19:51:18.801Z,14.25
2019-04-29T19:53:55.212Z,14.90
2019-04-29T19:56:29.029Z,14.85
2019-04-29T19:59:10.497Z,15.23
2019-04-29T20:01:38.314Z,15.10
2019-04-29T20:04:29.423Z,15.78
2019-04-29T20:07:22.192Z,17.05
2019-04-29T20:10:04.046Z,16.73
2019-04-29T20:12:31.092Z,18.15
2019-04-29T20:15:07.754Z,18.32
2019-04-29T20:18:12.069Z,17.32
2019-04-29T20:20:49.771Z,17.40
2019-04-29T20:23:26.229Z,18.65
2019-04-29T20:26:12.898Z,18.67
2019-04-29T20:28:35.834Z,19.98
2019-04-29T20:31:18.622Z,22.45
2019-04-29T20:33:46.719Z,24.70
2019-04-29T20:36:33.195Z,26.20
2019-04-29T20:38:53.473Z,23.90
2019-04-29T20:41:40.315Z,24.92
2019-04-29T20:44:05.886Z,23.80
2019-04-29T20:46:45.314Z,24.02
2019-04-29T20:49:16.134Z,26.68
2019-04-29T20:51:52.315Z,26.93
2019-04-29T20:54:28.246Z,32.17
2019-04-29T20:57:05.006Z,30.20
2019-04-29T20:59:36.780Z,27.73
2019-04-29T21:02:12.824Z,25.43
2019-04-29T21:04:47.582Z,25.23
2019-04-29T21:07:23.843Z,23.32
2019-04-29T21:09:59.908Z,22.82
2019-04-29T21:12:49.449Z,23.15
2019-04-29T21:15:28.223Z,23.87
2019-04-29T21:18:02.004Z,24.80
2019-04-29T21:20:35.579Z,21.82
2019-04-29T21:23:09.777Z,20.45
2019-04-29T21:25:45.526Z,19.57
2019-04-29T21:28:18.836Z,20.52
2019-04-29T21:30:54.690Z,20.48
2019-04-29T21:33:31.100Z,19.45
2019-04-29T21:36:20.573Z,19.62
2019-04-29T21:39:09.670Z,21.15
2019-04-29T21:41:50.668Z,20.50
2019-04-29T21:44:27.766Z,20.90
2019-04-29T21:47:04.061Z,19.70
2019-04-29T21:49:44.852Z,19.73
2019-04-29T21:52:11.735Z,19.20
2019-04-29T21:54:49.166Z,20.02
2019-04-29T21:57:23.676Z,16.62
2019-04-29T21:59:56.435Z,16.75
2019-04-29T22:02:29.273Z,16.25
2019-04-29T22:05:02.612Z,15.85
2019-04-29T22:07:39.876Z,15.60
2019-04-29T22:10:12.273Z,14.80
2019-04-29T22:12:45.222Z,13.20
2019-04-29T22:15:29.744Z,13.25
2019-04-29T22:17:58.619Z,12.90
2019-04-29T22:20:30.058Z,12.85
2019-04-29T22:23:08.395Z,12.23
2019-04-29T22:25:41.008Z,12.47
2019-04-29T22:28:19.548Z,12.37
2019-04-29T22:30:54.941Z,12.13
2019-04-29T22:33:29.676Z,11.70
2019-04-29T22:36:05.164Z,11.20
2019-04-29T22:38:38.860Z,11.15
2019-04-29T22:41:16.872Z,11.35
2019-04-29T22:43:54.643Z,11.57
2019-04-29T22:46:30.171Z,10.55
2019-04-29T22:49:05.740Z,11.03
2019-04-29T22:51:38.971Z,11.20
2019-04-29T22:54:12.818Z,9.55
2019-04-29T22:56:52.343Z,10.53
2019-04-29T22:59:22.067Z,10.50
2019-04-29T23:01:55.851Z,9.60
2019-04-29T23:04:29.176Z,10.48
2019-04-29T23:07:02.166Z,9.68
2019-04-29T23:09:36.653Z,9.33
2019-04-29T23:12:17.012Z,10.32
2019-04-29T23:14:45.770Z,10.03
2019-04-29T23:17:19.125Z,10.50
2019-04-29T23:19:55.147Z,8.58
2019-04-29T23:22:43.428Z,9.75
2019-04-29T23:25:38.956Z,9.35
2019-04-29T23:28:12.721Z,9.40
2019-04-29T23:30:47.861Z,11.38
2019-04-29T23:33:23.999Z,9.80
2019-04-29T23:35:57.627Z,10.68
2019-04-29T23:38:31.424Z,10.40
2019-04-29T23:41:07.096Z,10.82
2019-04-29T23:43:40.783Z,9.78
2019-04-29T23:46:16.170Z,10.68
2019-04-29T23:48:50.169Z,10.53
2019-04-29T23:51:27.358Z,12.13
2019-04-29T23:54:03.715Z,10.63
2019-04-29T23:56:42.840Z,11.35
2019-04-29T23:59:25.037Z,11.53
